Nearby METAR Reports

 

KSFO - San Francisco, California, USA
Distance from station: NNW 8km
Updated: Sun, 22-Apr-2018 7:56pm PDT
Mostly cloudy
Mostly cloudy
 Wind from WNW
Wind: WNW 16 mph , 26 km/h
Temperature: 59°F , 15°C
Dew Point: 46°F , 8°C
Humidity: 63%
Barometer: 29.90 inHg , 1012.5 hPa
Clouds: Mostly cloudy
Visibility: 10 miles , 16 km
Cloud details: Mostly cloudy 20000 ft
2018/04/23 02:56 KSFO 230256Z 30014KT 10SM BKN200 15/08 A2990 RMK AO2 SLP125 T01500078 55003
KSQL - San Carlos Airpo, California, USA
Distance from station: ESE 8km
Updated: Sun, 22-Apr-2018 7:47pm PDT
Mostly cloudy
Mostly cloudy
 Wind from WNW
Wind: WNW 10 mph , 17 km/h
Temperature: 70°F , 21°C
Dew Point: 45°F , 7°C
Humidity: 40%
Barometer: 29.89 inHg , 1012.2 hPa
Clouds: Mostly cloudy
Visibility: 10 miles , 16 km
Cloud details: Mostly cloudy 18000 ft
2018/04/23 02:47 KSQL 230247Z 30009KT 10SM BKN180 21/07 A2989
 
KHAF - Half Moon Bay, California, USA
Distance from station: WSW 15km
Updated: Sun, 22-Apr-2018 8:15pm PDT
Mist, Clear
Mist, Clear
 Wind from NNW
Wind: NNW 3 mph , 6 km/h
Temperature: 52°F , 11°C
Dew Point: 48°F , 9°C
Humidity: 88%
Barometer: 29.95 inHg , 1014.2 hPa
Summary: Mist
Clouds: Clear
Visibility: 4 miles , 6 km
2018/04/23 03:15 KHAF 230315Z AUTO 33003KT 4SM BR CLR 11/09 A2995 RMK AO2
KOAK - Oakland, California, USA
Distance from station: NNE 21km
Updated: Sun, 22-Apr-2018 7:53pm PDT
Mostly cloudy
Mostly cloudy
 Wind from WNW
Wind: WNW 9 mph , 15 km/h
Temperature: 59°F , 15°C
Dew Point: 52°F , 11°C
Humidity: 77%
Barometer: 29.91 inHg , 1012.9 hPa
Clouds: Mostly cloudy
Visibility: 10 miles , 16 km
Cloud details: Few Clouds 20000 ft
Mostly cloudy 25000 ft
2018/04/23 02:53 KOAK 230253Z 30008KT 10SM FEW200 BKN250 15/11 A2991 RMK AO2 SLP127 T01500111 55003
 
KPAO - Palo Alto, California, USA
Distance from station: ESE 21km
Updated: Sun, 22-Apr-2018 7:47pm PDT
Partly cloudy
Partly cloudy
 Wind from NNW
Wind: NNW 9 mph , 15 km/h
Barometer: 29.90 inHg , 1012.5 hPa
Clouds: Partly cloudy
Visibility: 10 miles , 16 km
Cloud details: Partly cloudy 18000 ft
2018/04/23 02:47 KPAO 230247Z 33008KT 10SM SCT180 A2990
KHWD - Hayward, California, USA
Distance from station: NE 23km
Updated: Sun, 22-Apr-2018 7:54pm PDT
Clear
Clear
 Wind from WNW
Wind: WNW 6 mph , 9 km/h
Temperature: 63°F , 17°C
Dew Point: 50°F , 10°C
Humidity: 64%
Barometer: 29.90 inHg , 1012.5 hPa
Clouds: Clear
Visibility: 10 miles , 16 km
2018/04/23 02:54 KHWD 230254Z 29005KT 10SM CLR 17/10 A2990 RMK AO2 SLP135 T01720100 53000 $
 
KNUQ - Moffett Nas/Mtn, California, USA
Distance from station: ESE 30km
Updated: Sun, 22-Apr-2018 7:56pm PDT
Clear
Clear
 Wind from N
Wind: N 10 mph , 17 km/h
Temperature: 64°F , 18°C
Dew Point: 55°F , 13°C
Humidity: 73%
Barometer: 29.90 inHg , 1012.5 hPa
Clouds: Clear
Visibility: 10 miles , 16 km
2018/04/23 02:56 KNUQ 230256Z 35009KT 10SM CLR 18/13 A2990 RMK AO2 SLP128 T01780133 53001
KSJC - San Jose, California, USA
Distance from station: ESE 42km
Updated: Sun, 22-Apr-2018 7:53pm PDT
Partly cloudy
Partly cloudy
 Wind from WNW
Wind: WNW 9 mph , 15 km/h
Temperature: 68°F , 20°C
Dew Point: 48°F , 9°C
Humidity: 49%
Barometer: 29.90 inHg , 1012.5 hPa
Clouds: Partly cloudy
Visibility: 10 miles , 16 km
Cloud details: Few Clouds 9000 ft
Partly cloudy 16000 ft
2018/04/23 02:53 KSJC 230253Z 30008KT 10SM FEW090 SCT160 20/09 A2990 RMK AO2 SLP123 T02000094 53002 $
 
KLVK - Livermore, California, USA
Distance from station: ENE 49km
Updated: Sun, 22-Apr-2018 7:53pm PDT
Clear
Clear
 Wind from WNW
Wind: WNW 8 mph , 13 km/h
Temperature: 72°F , 22°C
Dew Point: 50°F , 10°C
Humidity: 47%
Barometer: 29.89 inHg , 1012.2 hPa
Clouds: Clear
Visibility: 10 miles , 16 km
2018/04/23 02:53 KLVK 230253Z 29007KT 10SM CLR 22/10 A2989 RMK AO2 SLP118 T02170100 53001
KRHV - San Jose/Reid, California, USA
Distance from station: ESE 53km
Updated: Sun, 22-Apr-2018 7:47pm PDT
Partly cloudy
Partly cloudy
 Wind from NW
Wind: NW 12 mph , 19 km/h
Temperature: 72°F , 22°C
Dew Point: 50°F , 10°C
Humidity: 47%
Barometer: 29.88 inHg , 1011.9 hPa
Clouds: Partly cloudy
Visibility: 10 miles , 16 km
Cloud details: Partly cloudy 18000 ft
2018/04/23 02:47 KRHV 230247Z 32010KT 10SM SCT180 22/10 A2988
 
KCCR - Concord, California, USA
Distance from station: NNE 56km
Updated: Sun, 22-Apr-2018 7:53pm PDT
Clear
Clear
 Wind from NNW
Wind: NNW 3 mph , 6 km/h
Temperature: 73°F , 23°C
Dew Point: 54°F , 12°C
Humidity: 50%
Barometer: 29.88 inHg , 1011.9 hPa
Clouds: Clear
Visibility: 10 miles , 16 km
2018/04/23 02:53 KCCR 230253Z 33003KT 10SM CLR 23/12 A2988 RMK AO2 SLP104 T02280122 55003
KDVO - Novato/Gnoss Fld, California, USA
Distance from station: NNW 70km
Updated: Sun, 22-Apr-2018 8:15pm PDT
Clear
Clear
 Wind from N
Wind: N 3 mph , 6 km/h
Temperature: 66°F , 19°C
Dew Point: 55°F , 13°C
Humidity: 68%
Barometer: 29.90 inHg , 1012.5 hPa
Clouds: Clear
Visibility: 10 miles , 16 km
2018/04/23 03:15 KDVO 230315Z AUTO 35003KT 10SM CLR 19/13 A2990 RMK AO2
 
KAPC - Napa, California, USA
Distance from station: N 73km
Updated: Sun, 22-Apr-2018 7:54pm PDT
Clear
Clear
 Wind from S
Wind: S 6 mph , 9 km/h
Barometer: 29.89 inHg , 1012.2 hPa
Clouds: Clear
Visibility: 10 miles , 16 km
2018/04/23 02:54 KAPC 230254Z 19005KT 10SM CLR A2989 RMK AO2 SLP115 55000 $